sensor_id;sensor_type;location;lat;lon;timestamp;P1;durP1;ratioP1;P2;durP2;ratioP2
26756;SDS011;23848;49.798;10.228;2022-08-16T00:02:19;2.38;;;1.42;;
26756;SDS011;23848;49.798;10.228;2022-08-16T00:04:48;3.75;;;1.65;;
26756;SDS011;23848;49.798;10.228;2022-08-16T00:07:17;4.05;;;1.52;;
26756;SDS011;23848;49.798;10.228;2022-08-16T00:09:46;2.92;;;1.30;;
26756;SDS011;23848;49.798;10.228;2022-08-16T00:12:18;3.38;;;1.65;;
26756;SDS011;23848;49.798;10.228;2022-08-16T00:14:48;3.03;;;1.92;;
26756;SDS011;23848;49.798;10.228;2022-08-16T00:17:22;3.03;;;1.52;;
26756;SDS011;23848;49.798;10.228;2022-08-16T00:19:51;3.08;;;2.00;;
26756;SDS011;23848;49.798;10.228;2022-08-16T00:22:20;2.90;;;1.65;;
26756;SDS011;23848;49.798;10.228;2022-08-16T00:24:50;2.78;;;1.52;;
26756;SDS011;23848;49.798;10.228;2022-08-16T00:27:21;3.30;;;1.80;;
26756;SDS011;23848;49.798;10.228;2022-08-16T00:29:50;3.08;;;1.80;;
26756;SDS011;23848;49.798;10.228;2022-08-16T00:32:26;2.83;;;1.50;;
26756;SDS011;23848;49.798;10.228;2022-08-16T00:34:58;2.97;;;1.80;;
26756;SDS011;23848;49.798;10.228;2022-08-16T00:37:40;3.20;;;1.67;;
26756;SDS011;23848;49.798;10.228;2022-08-16T00:40:25;3.28;;;1.55;;
26756;SDS011;23848;49.798;10.228;2022-08-16T00:43:02;3.15;;;1.77;;
26756;SDS011;23848;49.798;10.228;2022-08-16T00:45:39;3.53;;;2.05;;
26756;SDS011;23848;49.798;10.228;2022-08-16T00:48:26;4.25;;;1.60;;
26756;SDS011;23848;49.798;10.228;2022-08-16T00:51:09;2.72;;;1.70;;
26756;SDS011;23848;49.798;10.228;2022-08-16T00:53:41;2.70;;;1.67;;
26756;SDS011;23848;49.798;10.228;2022-08-16T00:56:10;3.58;;;2.00;;
26756;SDS011;23848;49.798;10.228;2022-08-16T00:59:00;2.80;;;1.63;;
26756;SDS011;23848;49.798;10.228;2022-08-16T01:01:30;3.25;;;1.90;;
26756;SDS011;23848;49.798;10.228;2022-08-16T01:04:02;3.15;;;1.88;;
26756;SDS011;23848;49.798;10.228;2022-08-16T01:06:51;2.83;;;2.10;;
26756;SDS011;23848;49.798;10.228;2022-08-16T01:09:28;3.33;;;2.00;;
26756;SDS011;23848;49.798;10.228;2022-08-16T01:11:59;3.08;;;1.73;;
26756;SDS011;23848;49.798;10.228;2022-08-16T01:14:36;3.10;;;1.80;;
26756;SDS011;23848;49.798;10.228;2022-08-16T01:17:08;3.15;;;2.35;;
26756;SDS011;23848;49.798;10.228;2022-08-16T01:19:39;2.72;;;1.92;;
26756;SDS011;23848;49.798;10.228;2022-08-16T01:22:10;4.47;;;2.28;;
26756;SDS011;23848;49.798;10.228;2022-08-16T01:25:03;3.35;;;2.10;;
26756;SDS011;23848;49.798;10.228;2022-08-16T01:27:34;3.17;;;1.80;;
26756;SDS011;23848;49.798;10.228;2022-08-16T01:30:05;2.42;;;1.60;;
26756;SDS011;23848;49.798;10.228;2022-08-16T01:32:46;3.38;;;1.85;;
26756;SDS011;23848;49.798;10.228;2022-08-16T01:35:29;3.55;;;2.15;;
26756;SDS011;23848;49.798;10.228;2022-08-16T01:38:13;3.90;;;1.88;;
26756;SDS011;23848;49.798;10.228;2022-08-16T01:40:47;3.88;;;1.92;;
26756;SDS011;23848;49.798;10.228;2022-08-16T01:43:17;4.60;;;2.10;;
26756;SDS011;23848;49.798;10.228;2022-08-16T01:45:51;3.05;;;1.90;;
26756;SDS011;23848;49.798;10.228;2022-08-16T01:48:23;3.10;;;1.98;;
26756;SDS011;23848;49.798;10.228;2022-08-16T01:50:54;3.90;;;1.90;;
26756;SDS011;23848;49.798;10.228;2022-08-16T01:53:41;4.30;;;2.47;;
26756;SDS011;23848;49.798;10.228;2022-08-16T01:56:21;2.97;;;1.90;;
26756;SDS011;23848;49.798;10.228;2022-08-16T01:58:51;3.00;;;1.90;;
26756;SDS011;23848;49.798;10.228;2022-08-16T02:01:20;3.30;;;1.80;;
26756;SDS011;23848;49.798;10.228;2022-08-16T02:03:53;2.60;;;1.60;;
26756;SDS011;23848;49.798;10.228;2022-08-16T02:06:35;3.53;;;2.03;;
26756;SDS011;23848;49.798;10.228;2022-08-16T02:09:12;2.90;;;1.90;;
26756;SDS011;23848;49.798;10.228;2022-08-16T02:11:46;3.85;;;2.38;;
26756;SDS011;23848;49.798;10.228;2022-08-16T02:14:19;3.50;;;2.03;;
26756;SDS011;23848;49.798;10.228;2022-08-16T02:16:52;4.97;;;1.90;;
26756;SDS011;23848;49.798;10.228;2022-08-16T02:19:21;3.83;;;2.13;;
26756;SDS011;23848;49.798;10.228;2022-08-16T02:22:12;4.03;;;2.35;;
26756;SDS011;23848;49.798;10.228;2022-08-16T02:25:03;2.95;;;2.15;;
26756;SDS011;23848;49.798;10.228;2022-08-16T02:27:37;4.47;;;2.40;;
26756;SDS011;23848;49.798;10.228;2022-08-16T02:30:08;4.50;;;2.47;;
26756;SDS011;23848;49.798;10.228;2022-08-16T02:32:57;4.13;;;2.40;;
26756;SDS011;23848;49.798;10.228;2022-08-16T02:35:28;6.78;;;2.60;;
26756;SDS011;23848;49.798;10.228;2022-08-16T02:37:56;5.05;;;2.47;;
26756;SDS011;23848;49.798;10.228;2022-08-16T02:40:34;3.47;;;2.30;;
26756;SDS011;23848;49.798;10.228;2022-08-16T02:43:08;3.42;;;2.38;;
26756;SDS011;23848;49.798;10.228;2022-08-16T02:45:37;4.65;;;2.22;;
26756;SDS011;23848;49.798;10.228;2022-08-16T02:48:06;3.85;;;2.80;;
26756;SDS011;23848;49.798;10.228;2022-08-16T02:50:56;5.47;;;2.67;;
26756;SDS011;23848;49.798;10.228;2022-08-16T02:53:36;4.45;;;2.58;;
26756;SDS011;23848;49.798;10.228;2022-08-16T02:56:05;3.72;;;2.47;;
26756;SDS011;23848;49.798;10.228;2022-08-16T02:58:41;3.20;;;2.30;;
26756;SDS011;23848;49.798;10.228;2022-08-16T03:01:11;3.55;;;2.50;;
26756;SDS011;23848;49.798;10.228;2022-08-16T03:03:59;3.92;;;2.75;;
26756;SDS011;23848;49.798;10.228;2022-08-16T03:06:49;4.22;;;2.60;;
26756;SDS011;23848;49.798;10.228;2022-08-16T03:09:22;5.05;;;2.75;;
26756;SDS011;23848;49.798;10.228;2022-08-16T03:11:54;4.55;;;2.75;;
26756;SDS011;23848;49.798;10.228;2022-08-16T03:14:24;5.43;;;2.65;;
26756;SDS011;23848;49.798;10.228;2022-08-16T03:16:52;4.28;;;2.85;;
26756;SDS011;23848;49.798;10.228;2022-08-16T03:19:26;4.30;;;2.70;;
26756;SDS011;23848;49.798;10.228;2022-08-16T03:22:14;4.57;;;2.75;;
26756;SDS011;23848;49.798;10.228;2022-08-16T03:24:54;4.45;;;2.97;;
26756;SDS011;23848;49.798;10.228;2022-08-16T03:27:23;5.20;;;2.80;;
26756;SDS011;23848;49.798;10.228;2022-08-16T03:29:58;4.20;;;2.97;;
26756;SDS011;23848;49.798;10.228;2022-08-16T03:32:27;4.03;;;2.80;;
26756;SDS011;23848;49.798;10.228;2022-08-16T03:34:57;4.15;;;2.90;;
26756;SDS011;23848;49.798;10.228;2022-08-16T03:37:25;4.40;;;2.70;;
26756;SDS011;23848;49.798;10.228;2022-08-16T03:39:54;5.53;;;2.88;;
26756;SDS011;23848;49.798;10.228;2022-08-16T03:42:28;4.90;;;3.13;;
26756;SDS011;23848;49.798;10.228;2022-08-16T03:44:58;5.18;;;2.85;;
26756;SDS011;23848;49.798;10.228;2022-08-16T03:47:29;5.40;;;2.90;;
26756;SDS011;23848;49.798;10.228;2022-08-16T03:49:59;4.40;;;3.05;;
26756;SDS011;23848;49.798;10.228;2022-08-16T03:52:28;3.63;;;2.70;;
26756;SDS011;23848;49.798;10.228;2022-08-16T03:54:57;4.10;;;2.75;;
26756;SDS011;23848;49.798;10.228;2022-08-16T03:57:27;3.67;;;2.83;;
26756;SDS011;23848;49.798;10.228;2022-08-16T04:00:02;4.13;;;3.22;;
26756;SDS011;23848;49.798;10.228;2022-08-16T04:02:58;4.78;;;3.33;;
26756;SDS011;23848;49.798;10.228;2022-08-16T04:05:33;4.60;;;3.25;;
26756;SDS011;23848;49.798;10.228;2022-08-16T04:08:03;4.70;;;3.22;;
26756;SDS011;23848;49.798;10.228;2022-08-16T04:10:49;4.38;;;3.13;;
26756;SDS011;23848;49.798;10.228;2022-08-16T04:13:20;4.38;;;3.35;;
26756;SDS011;23848;49.798;10.228;2022-08-16T04:16:10;5.82;;;2.97;;
26756;SDS011;23848;49.798;10.228;2022-08-16T04:21:28;4.38;;;3.22;;
26756;SDS011;23848;49.798;10.228;2022-08-16T04:23:57;5.00;;;3.10;;
26756;SDS011;23848;49.798;10.228;2022-08-16T04:26:26;6.40;;;2.63;;
26756;SDS011;23848;49.798;10.228;2022-08-16T04:28:57;5.65;;;3.20;;
26756;SDS011;23848;49.798;10.228;2022-08-16T04:31:44;5.13;;;2.75;;
26756;SDS011;23848;49.798;10.228;2022-08-16T04:34:23;4.40;;;3.25;;
26756;SDS011;23848;49.798;10.228;2022-08-16T04:36:52;4.10;;;2.90;;
26756;SDS011;23848;49.798;10.228;2022-08-16T04:39:22;4.45;;;3.05;;
26756;SDS011;23848;49.798;10.228;2022-08-16T04:42:10;5.07;;;3.40;;
26756;SDS011;23848;49.798;10.228;2022-08-16T04:44:39;4.15;;;3.15;;
26756;SDS011;23848;49.798;10.228;2022-08-16T04:47:22;4.45;;;3.05;;
26756;SDS011;23848;49.798;10.228;2022-08-16T04:49:57;5.07;;;3.25;;
26756;SDS011;23848;49.798;10.228;2022-08-16T04:52:26;4.60;;;3.40;;
26756;SDS011;23848;49.798;10.228;2022-08-16T04:55:02;5.28;;;3.40;;
26756;SDS011;23848;49.798;10.228;2022-08-16T04:57:32;6.53;;;3.70;;
26756;SDS011;23848;49.798;10.228;2022-08-16T05:00:03;5.18;;;3.50;;
26756;SDS011;23848;49.798;10.228;2022-08-16T05:02:53;5.78;;;3.67;;
26756;SDS011;23848;49.798;10.228;2022-08-16T05:05:26;7.85;;;3.88;;
26756;SDS011;23848;49.798;10.228;2022-08-16T05:07:59;5.10;;;4.07;;
26756;SDS011;23848;49.798;10.228;2022-08-16T05:10:49;8.20;;;4.63;;
26756;SDS011;23848;49.798;10.228;2022-08-16T05:13:24;4.95;;;3.35;;
26756;SDS011;23848;49.798;10.228;2022-08-16T05:16:07;7.53;;;3.70;;
26756;SDS011;23848;49.798;10.228;2022-08-16T05:18:43;5.75;;;3.42;;
26756;SDS011;23848;49.798;10.228;2022-08-16T05:21:13;5.70;;;3.58;;
26756;SDS011;23848;49.798;10.228;2022-08-16T05:23:41;5.50;;;3.70;;
26756;SDS011;23848;49.798;10.228;2022-08-16T05:26:25;8.38;;;3.85;;
26756;SDS011;23848;49.798;10.228;2022-08-16T05:28:54;5.85;;;3.50;;
26756;SDS011;23848;49.798;10.228;2022-08-16T05:31:23;6.25;;;3.70;;
26756;SDS011;23848;49.798;10.228;2022-08-16T05:33:57;5.72;;;3.85;;
26756;SDS011;23848;49.798;10.228;2022-08-16T05:36:28;5.72;;;3.70;;
26756;SDS011;23848;49.798;10.228;2022-08-16T05:39:03;6.30;;;3.50;;
26756;SDS011;23848;49.798;10.228;2022-08-16T05:41:33;6.35;;;4.07;;
26756;SDS011;23848;49.798;10.228;2022-08-16T05:44:11;6.68;;;3.80;;
26756;SDS011;23848;49.798;10.228;2022-08-16T05:46:50;5.97;;;3.88;;
26756;SDS011;23848;49.798;10.228;2022-08-16T05:49:21;7.65;;;4.45;;
26756;SDS011;23848;49.798;10.228;2022-08-16T05:51:50;7.40;;;5.03;;
26756;SDS011;23848;49.798;10.228;2022-08-16T05:54:22;6.88;;;4.40;;
26756;SDS011;23848;49.798;10.228;2022-08-16T05:56:51;6.80;;;4.18;;
26756;SDS011;23848;49.798;10.228;2022-08-16T05:59:21;5.40;;;3.90;;
26756;SDS011;23848;49.798;10.228;2022-08-16T06:01:52;5.57;;;3.67;;
26756;SDS011;23848;49.798;10.228;2022-08-16T06:04:22;7.55;;;3.95;;
26756;SDS011;23848;49.798;10.228;2022-08-16T06:07:02;5.45;;;3.60;;
26756;SDS011;23848;49.798;10.228;2022-08-16T06:09:49;4.85;;;3.28;;
26756;SDS011;23848;49.798;10.228;2022-08-16T06:12:18;6.78;;;4.45;;
26756;SDS011;23848;49.798;10.228;2022-08-16T06:14:53;8.02;;;3.75;;
26756;SDS011;23848;49.798;10.228;2022-08-16T06:17:25;5.32;;;3.47;;
26756;SDS011;23848;49.798;10.228;2022-08-16T06:20:11;9.05;;;3.60;;
26756;SDS011;23848;49.798;10.228;2022-08-16T06:22:50;4.78;;;3.75;;
26756;SDS011;23848;49.798;10.228;2022-08-16T06:25:29;5.35;;;3.40;;
26756;SDS011;23848;49.798;10.228;2022-08-16T06:28:05;6.13;;;4.28;;
26756;SDS011;23848;49.798;10.228;2022-08-16T06:30:35;6.20;;;3.80;;
26756;SDS011;23848;49.798;10.228;2022-08-16T06:33:10;4.55;;;3.55;;
26756;SDS011;23848;49.798;10.228;2022-08-16T06:35:49;6.45;;;3.40;;
26756;SDS011;23848;49.798;10.228;2022-08-16T06:38:20;6.78;;;3.45;;
26756;SDS011;23848;49.798;10.228;2022-08-16T06:40:58;5.60;;;4.00;;
26756;SDS011;23848;49.798;10.228;2022-08-16T06:43:27;5.45;;;3.58;;
26756;SDS011;23848;49.798;10.228;2022-08-16T06:45:57;7.40;;;3.90;;
26756;SDS011;23848;49.798;10.228;2022-08-16T06:48:29;5.45;;;3.40;;
26756;SDS011;23848;49.798;10.228;2022-08-16T06:51:01;5.13;;;3.90;;
26756;SDS011;23848;49.798;10.228;2022-08-16T06:53:29;7.03;;;3.97;;
26756;SDS011;23848;49.798;10.228;2022-08-16T06:56:01;5.25;;;3.78;;
26756;SDS011;23848;49.798;10.228;2022-08-16T06:58:48;6.05;;;4.13;;
26756;SDS011;23848;49.798;10.228;2022-08-16T07:01:17;6.53;;;3.90;;
26756;SDS011;23848;49.798;10.228;2022-08-16T07:04:05;5.43;;;3.60;;
26756;SDS011;23848;49.798;10.228;2022-08-16T07:06:38;6.47;;;4.00;;
26756;SDS011;23848;49.798;10.228;2022-08-16T07:09:08;5.43;;;4.18;;
26756;SDS011;23848;49.798;10.228;2022-08-16T07:11:37;5.55;;;4.13;;
26756;SDS011;23848;49.798;10.228;2022-08-16T07:14:13;5.90;;;4.03;;
26756;SDS011;23848;49.798;10.228;2022-08-16T07:16:52;7.43;;;4.45;;
26756;SDS011;23848;49.798;10.228;2022-08-16T07:19:23;4.88;;;3.70;;
26756;SDS011;23848;49.798;10.228;2022-08-16T07:22:12;5.63;;;4.13;;
26756;SDS011;23848;49.798;10.228;2022-08-16T07:25:01;5.35;;;4.13;;
26756;SDS011;23848;49.798;10.228;2022-08-16T07:27:30;6.00;;;4.50;;
26756;SDS011;23848;49.798;10.228;2022-08-16T07:29:59;6.22;;;4.22;;
26756;SDS011;23848;49.798;10.228;2022-08-16T07:32:29;5.95;;;4.03;;
26756;SDS011;23848;49.798;10.228;2022-08-16T07:35:00;9.57;;;3.92;;
26756;SDS011;23848;49.798;10.228;2022-08-16T07:37:29;5.90;;;3.63;;
26756;SDS011;23848;49.798;10.228;2022-08-16T07:39:58;4.43;;;3.42;;
26756;SDS011;23848;49.798;10.228;2022-08-16T07:42:36;6.03;;;4.45;;
26756;SDS011;23848;49.798;10.228;2022-08-16T07:45:06;8.82;;;4.43;;
26756;SDS011;23848;49.798;10.228;2022-08-16T07:47:35;5.18;;;4.45;;
26756;SDS011;23848;49.798;10.228;2022-08-16T07:50:07;5.78;;;4.20;;
26756;SDS011;23848;49.798;10.228;2022-08-16T07:52:57;4.75;;;3.72;;
26756;SDS011;23848;49.798;10.228;2022-08-16T07:55:29;6.35;;;4.35;;
26756;SDS011;23848;49.798;10.228;2022-08-16T07:58:13;6.53;;;4.30;;
26756;SDS011;23848;49.798;10.228;2022-08-16T08:00:58;4.95;;;4.18;;
26756;SDS011;23848;49.798;10.228;2022-08-16T08:03:36;6.45;;;3.97;;
26756;SDS011;23848;49.798;10.228;2022-08-16T08:06:09;8.00;;;4.63;;
26756;SDS011;23848;49.798;10.228;2022-08-16T08:08:39;6.22;;;4.10;;
26756;SDS011;23848;49.798;10.228;2022-08-16T08:11:17;5.85;;;4.20;;
26756;SDS011;23848;49.798;10.228;2022-08-16T08:13:46;5.90;;;4.78;;
26756;SDS011;23848;49.798;10.228;2022-08-16T08:16:16;5.75;;;4.30;;
26756;SDS011;23848;49.798;10.228;2022-08-16T08:18:46;5.20;;;4.10;;
26756;SDS011;23848;49.798;10.228;2022-08-16T08:21:26;4.53;;;3.88;;
26756;SDS011;23848;49.798;10.228;2022-08-16T08:24:18;6.85;;;3.80;;
26756;SDS011;23848;49.798;10.228;2022-08-16T08:26:46;5.22;;;3.42;;
26756;SDS011;23848;49.798;10.228;2022-08-16T08:29:16;6.75;;;4.55;;
26756;SDS011;23848;49.798;10.228;2022-08-16T08:31:49;5.00;;;4.10;;
26756;SDS011;23848;49.798;10.228;2022-08-16T08:34:19;5.43;;;4.68;;
26756;SDS011;23848;49.798;10.228;2022-08-16T08:36:48;5.53;;;3.67;;
26756;SDS011;23848;49.798;10.228;2022-08-16T08:39:21;4.22;;;3.78;;
26756;SDS011;23848;49.798;10.228;2022-08-16T08:41:50;4.53;;;3.80;;
26756;SDS011;23848;49.798;10.228;2022-08-16T08:44:20;5.75;;;4.07;;
26756;SDS011;23848;49.798;10.228;2022-08-16T08:46:56;5.45;;;4.30;;
26756;SDS011;23848;49.798;10.228;2022-08-16T08:49:26;5.05;;;4.05;;
26756;SDS011;23848;49.798;10.228;2022-08-16T08:52:15;5.63;;;4.30;;
26756;SDS011;23848;49.798;10.228;2022-08-16T08:55:06;5.18;;;3.97;;
26756;SDS011;23848;49.798;10.228;2022-08-16T08:57:37;5.50;;;3.92;;
26756;SDS011;23848;49.798;10.228;2022-08-16T09:00:06;9.15;;;4.57;;
26756;SDS011;23848;49.798;10.228;2022-08-16T09:02:40;6.50;;;4.47;;
26756;SDS011;23848;49.798;10.228;2022-08-16T09:05:11;5.68;;;4.05;;
26756;SDS011;23848;49.798;10.228;2022-08-16T09:07:42;4.55;;;3.90;;
26756;SDS011;23848;49.798;10.228;2022-08-16T09:10:29;4.88;;;4.13;;
26756;SDS011;23848;49.798;10.228;2022-08-16T09:12:59;6.18;;;3.92;;
26756;SDS011;23848;49.798;10.228;2022-08-16T09:15:28;5.05;;;3.45;;
26756;SDS011;23848;49.798;10.228;2022-08-16T09:17:59;5.75;;;3.83;;
26756;SDS011;23848;49.798;10.228;2022-08-16T09:20:48;4.85;;;4.18;;
26756;SDS011;23848;49.798;10.228;2022-08-16T09:23:25;9.77;;;4.03;;
26756;SDS011;23848;49.798;10.228;2022-08-16T09:25:54;6.03;;;4.32;;
26756;SDS011;23848;49.798;10.228;2022-08-16T09:28:23;4.43;;;3.88;;
26756;SDS011;23848;49.798;10.228;2022-08-16T09:31:12;4.97;;;3.67;;
26756;SDS011;23848;49.798;10.228;2022-08-16T09:33:40;4.88;;;4.38;;
26756;SDS011;23848;49.798;10.228;2022-08-16T09:36:09;8.13;;;4.22;;
26756;SDS011;23848;49.798;10.228;2022-08-16T09:38:57;4.68;;;3.97;;
26756;SDS011;23848;49.798;10.228;2022-08-16T09:41:30;7.32;;;3.88;;
26756;SDS011;23848;49.798;10.228;2022-08-16T09:43:59;5.22;;;4.05;;
26756;SDS011;23848;49.798;10.228;2022-08-16T09:46:48;4.80;;;3.65;;
26756;SDS011;23848;49.798;10.228;2022-08-16T09:49:23;6.40;;;4.38;;
26756;SDS011;23848;49.798;10.228;2022-08-16T09:52:02;4.80;;;3.95;;
26756;SDS011;23848;49.798;10.228;2022-08-16T09:54:34;7.40;;;4.03;;
26756;SDS011;23848;49.798;10.228;2022-08-16T09:57:04;5.53;;;4.18;;
26756;SDS011;23848;49.798;10.228;2022-08-16T09:59:37;5.55;;;3.63;;
26756;SDS011;23848;49.798;10.228;2022-08-16T10:02:07;4.65;;;3.83;;
26756;SDS011;23848;49.798;10.228;2022-08-16T10:04:53;5.28;;;3.72;;
26756;SDS011;23848;49.798;10.228;2022-08-16T10:07:22;5.07;;;3.78;;
26756;SDS011;23848;49.798;10.228;2022-08-16T10:09:51;4.72;;;3.92;;
26756;SDS011;23848;49.798;10.228;2022-08-16T10:12:23;5.15;;;3.72;;
26756;SDS011;23848;49.798;10.228;2022-08-16T10:15:11;4.63;;;3.90;;
26756;SDS011;23848;49.798;10.228;2022-08-16T10:17:43;6.72;;;4.43;;
26756;SDS011;23848;49.798;10.228;2022-08-16T10:20:27;5.20;;;4.10;;
26756;SDS011;23848;49.798;10.228;2022-08-16T10:22:55;4.03;;;3.60;;
26756;SDS011;23848;49.798;10.228;2022-08-16T10:25:32;4.50;;;3.90;;
26756;SDS011;23848;49.798;10.228;2022-08-16T10:28:21;5.38;;;3.70;;
26756;SDS011;23848;49.798;10.228;2022-08-16T10:30:55;6.18;;;3.88;;
26756;SDS011;23848;49.798;10.228;2022-08-16T10:33:25;4.30;;;3.78;;
26756;SDS011;23848;49.798;10.228;2022-08-16T10:35:58;4.03;;;3.58;;
26756;SDS011;23848;49.798;10.228;2022-08-16T10:38:29;5.95;;;4.15;;
26756;SDS011;23848;49.798;10.228;2022-08-16T10:41:02;6.35;;;4.22;;
26756;SDS011;23848;49.798;10.228;2022-08-16T10:43:34;4.32;;;3.80;;
26756;SDS011;23848;49.798;10.228;2022-08-16T10:46:03;5.32;;;3.70;;
26756;SDS011;23848;49.798;10.228;2022-08-16T10:48:51;4.22;;;3.38;;
26756;SDS011;23848;49.798;10.228;2022-08-16T10:51:21;4.20;;;3.78;;
26756;SDS011;23848;49.798;10.228;2022-08-16T10:54:09;4.43;;;3.50;;
26756;SDS011;23848;49.798;10.228;2022-08-16T10:56:55;5.43;;;3.72;;
26756;SDS011;23848;49.798;10.228;2022-08-16T10:59:25;4.60;;;3.42;;
26756;SDS011;23848;49.798;10.228;2022-08-16T11:02:14;6.55;;;3.80;;
26756;SDS011;23848;49.798;10.228;2022-08-16T11:05:04;6.05;;;3.70;;
26756;SDS011;23848;49.798;10.228;2022-08-16T11:07:37;7.72;;;3.78;;
26756;SDS011;23848;49.798;10.228;2022-08-16T11:10:18;3.95;;;3.45;;
26756;SDS011;23848;49.798;10.228;2022-08-16T11:13:09;4.93;;;3.85;;
26756;SDS011;23848;49.798;10.228;2022-08-16T11:16:00;5.20;;;3.50;;
26756;SDS011;23848;49.798;10.228;2022-08-16T11:18:48;4.95;;;3.78;;
26756;SDS011;23848;49.798;10.228;2022-08-16T11:21:37;4.40;;;3.42;;
26756;SDS011;23848;49.798;10.228;2022-08-16T11:24:26;6.03;;;4.03;;
26756;SDS011;23848;49.798;10.228;2022-08-16T11:27:07;4.63;;;3.45;;
26756;SDS011;23848;49.798;10.228;2022-08-16T11:29:55;4.90;;;3.60;;
26756;SDS011;23848;49.798;10.228;2022-08-16T11:32:27;5.72;;;3.50;;
26756;SDS011;23848;49.798;10.228;2022-08-16T11:34:59;4.15;;;3.20;;
26756;SDS011;23848;49.798;10.228;2022-08-16T11:37:42;4.28;;;3.65;;
26756;SDS011;23848;49.798;10.228;2022-08-16T11:40:32;5.15;;;2.95;;
26756;SDS011;23848;49.798;10.228;2022-08-16T11:43:06;4.68;;;3.40;;
26756;SDS011;23848;49.798;10.228;2022-08-16T11:45:35;4.70;;;3.30;;
26756;SDS011;23848;49.798;10.228;2022-08-16T11:48:08;4.38;;;3.42;;
26756;SDS011;23848;49.798;10.228;2022-08-16T11:50:39;3.85;;;3.25;;
26756;SDS011;23848;49.798;10.228;2022-08-16T11:53:09;7.32;;;3.17;;
26756;SDS011;23848;49.798;10.228;2022-08-16T11:55:40;3.85;;;3.10;;
26756;SDS011;23848;49.798;10.228;2022-08-16T11:58:09;4.22;;;3.42;;
26756;SDS011;23848;49.798;10.228;2022-08-16T12:00:40;4.35;;;2.90;;
26756;SDS011;23848;49.798;10.228;2022-08-16T12:03:18;3.75;;;3.30;;
26756;SDS011;23848;49.798;10.228;2022-08-16T12:06:00;3.88;;;3.22;;
26756;SDS011;23848;49.798;10.228;2022-08-16T12:08:30;4.55;;;3.30;;
26756;SDS011;23848;49.798;10.228;2022-08-16T12:10:59;7.05;;;3.35;;
26756;SDS011;23848;49.798;10.228;2022-08-16T12:13:27;5.15;;;3.15;;
26756;SDS011;23848;49.798;10.228;2022-08-16T12:15:56;4.00;;;3.40;;
26756;SDS011;23848;49.798;10.228;2022-08-16T12:18:26;4.18;;;3.47;;
26756;SDS011;23848;49.798;10.228;2022-08-16T12:20:55;4.68;;;3.50;;
26756;SDS011;23848;49.798;10.228;2022-08-16T12:23:25;3.83;;;3.03;;
26756;SDS011;23848;49.798;10.228;2022-08-16T12:25:57;4.43;;;3.70;;
26756;SDS011;23848;49.798;10.228;2022-08-16T12:28:31;5.15;;;3.35;;
26756;SDS011;23848;49.798;10.228;2022-08-16T12:31:20;3.85;;;3.00;;
26756;SDS011;23848;49.798;10.228;2022-08-16T12:33:50;4.18;;;3.35;;
26756;SDS011;23848;49.798;10.228;2022-08-16T12:36:22;6.28;;;3.30;;
26756;SDS011;23848;49.798;10.228;2022-08-16T12:38:55;3.63;;;3.10;;
26756;SDS011;23848;49.798;10.228;2022-08-16T12:41:24;4.47;;;3.00;;
26756;SDS011;23848;49.798;10.228;2022-08-16T12:43:52;5.07;;;3.20;;
26756;SDS011;23848;49.798;10.228;2022-08-16T12:46:26;3.88;;;3.33;;
26756;SDS011;23848;49.798;10.228;2022-08-16T12:48:58;4.45;;;2.90;;
26756;SDS011;23848;49.798;10.228;2022-08-16T12:51:27;4.28;;;3.22;;
26756;SDS011;23848;49.798;10.228;2022-08-16T12:54:17;3.55;;;3.00;;
26756;SDS011;23848;49.798;10.228;2022-08-16T12:56:45;3.33;;;2.72;;
26756;SDS011;23848;49.798;10.228;2022-08-16T12:59:15;3.30;;;3.00;;
26756;SDS011;23848;49.798;10.228;2022-08-16T13:01:46;5.55;;;3.40;;
26756;SDS011;23848;49.798;10.228;2022-08-16T13:04:24;4.57;;;3.03;;
26756;SDS011;23848;49.798;10.228;2022-08-16T13:06:58;4.70;;;3.30;;
26756;SDS011;23848;49.798;10.228;2022-08-16T13:09:27;5.05;;;2.85;;
26756;SDS011;23848;49.798;10.228;2022-08-16T13:12:08;3.88;;;2.97;;
26756;SDS011;23848;49.798;10.228;2022-08-16T13:14:45;4.15;;;3.00;;
26756;SDS011;23848;49.798;10.228;2022-08-16T13:17:16;4.65;;;3.30;;
26756;SDS011;23848;49.798;10.228;2022-08-16T13:19:47;4.10;;;3.20;;
26756;SDS011;23848;49.798;10.228;2022-08-16T13:22:34;5.10;;;2.72;;
26756;SDS011;23848;49.798;10.228;2022-08-16T13:25:03;4.28;;;3.40;;
26756;SDS011;23848;49.798;10.228;2022-08-16T13:27:34;4.13;;;2.92;;
26756;SDS011;23848;49.798;10.228;2022-08-16T13:30:22;6.72;;;3.38;;
26756;SDS011;23848;49.798;10.228;2022-08-16T13:33:03;3.53;;;2.83;;
26756;SDS011;23848;49.798;10.228;2022-08-16T13:35:40;3.42;;;2.58;;
26756;SDS011;23848;49.798;10.228;2022-08-16T13:38:09;5.47;;;3.03;;
26756;SDS011;23848;49.798;10.228;2022-08-16T13:40:51;4.03;;;2.83;;
26756;SDS011;23848;49.798;10.228;2022-08-16T13:43:23;4.07;;;3.05;;
26756;SDS011;23848;49.798;10.228;2022-08-16T13:45:52;5.07;;;3.38;;
26756;SDS011;23848;49.798;10.228;2022-08-16T13:48:21;5.72;;;3.17;;
26756;SDS011;23848;49.798;10.228;2022-08-16T13:50:53;4.00;;;3.03;;
26756;SDS011;23848;49.798;10.228;2022-08-16T13:53:22;4.18;;;3.03;;
26756;SDS011;23848;49.798;10.228;2022-08-16T13:55:51;3.78;;;3.10;;
26756;SDS011;23848;49.798;10.228;2022-08-16T13:58:25;3.22;;;2.80;;
26756;SDS011;23848;49.798;10.228;2022-08-16T14:01:13;3.97;;;3.00;;
26756;SDS011;23848;49.798;10.228;2022-08-16T14:03:42;3.92;;;2.75;;
26756;SDS011;23848;49.798;10.228;2022-08-16T14:06:12;3.05;;;2.28;;
26756;SDS011;23848;49.798;10.228;2022-08-16T14:08:43;3.13;;;2.75;;
26756;SDS011;23848;49.798;10.228;2022-08-16T14:11:31;3.47;;;2.30;;
26756;SDS011;23848;49.798;10.228;2022-08-16T14:13:59;4.18;;;2.70;;
26756;SDS011;23848;49.798;10.228;2022-08-16T14:16:31;3.50;;;2.50;;
26756;SDS011;23848;49.798;10.228;2022-08-16T14:19:00;3.92;;;2.80;;
26756;SDS011;23848;49.798;10.228;2022-08-16T14:21:30;4.75;;;2.72;;
26756;SDS011;23848;49.798;10.228;2022-08-16T14:24:00;4.25;;;2.65;;
26756;SDS011;23848;49.798;10.228;2022-08-16T14:26:49;4.65;;;2.70;;
26756;SDS011;23848;49.798;10.228;2022-08-16T14:29:18;4.38;;;2.83;;
26756;SDS011;23848;49.798;10.228;2022-08-16T14:31:47;4.78;;;2.60;;
26756;SDS011;23848;49.798;10.228;2022-08-16T14:34:19;4.28;;;3.20;;
26756;SDS011;23848;49.798;10.228;2022-08-16T14:36:52;4.75;;;2.65;;
26756;SDS011;23848;49.798;10.228;2022-08-16T14:39:20;2.80;;;2.33;;
26756;SDS011;23848;49.798;10.228;2022-08-16T14:41:49;3.15;;;2.58;;
26756;SDS011;23848;49.798;10.228;2022-08-16T14:44:21;3.40;;;2.60;;
26756;SDS011;23848;49.798;10.228;2022-08-16T14:46:52;4.47;;;2.80;;
26756;SDS011;23848;49.798;10.228;2022-08-16T14:49:21;3.85;;;2.85;;
26756;SDS011;23848;49.798;10.228;2022-08-16T14:51:51;4.10;;;2.78;;
26756;SDS011;23848;49.798;10.228;2022-08-16T14:54:20;4.00;;;3.03;;
26756;SDS011;23848;49.798;10.228;2022-08-16T14:56:55;4.15;;;2.97;;
26756;SDS011;23848;49.798;10.228;2022-08-16T14:59:23;3.67;;;2.70;;
26756;SDS011;23848;49.798;10.228;2022-08-16T15:01:55;4.05;;;2.63;;
26756;SDS011;23848;49.798;10.228;2022-08-16T15:04:26;4.25;;;2.53;;
26756;SDS011;23848;49.798;10.228;2022-08-16T15:07:14;3.33;;;2.55;;
26756;SDS011;23848;49.798;10.228;2022-08-16T15:09:47;4.97;;;2.70;;
26756;SDS011;23848;49.798;10.228;2022-08-16T15:12:27;3.45;;;2.22;;
26756;SDS011;23848;49.798;10.228;2022-08-16T15:14:59;4.00;;;2.72;;
26756;SDS011;23848;49.798;10.228;2022-08-16T15:17:38;3.83;;;2.17;;
26756;SDS011;23848;49.798;10.228;2022-08-16T15:20:19;3.80;;;2.08;;
26756;SDS011;23848;49.798;10.228;2022-08-16T15:22:53;2.72;;;2.30;;